Time;durP1;ratioP1;P1;durP2;ratioP2;P2;SDS_P1;SDS_P2;PMS_P1;PMS_P2;Temp;Humidity;BMP_temperature;BMP_pressure;BME280_temperature;BME280_humidity;BME280_pressure;Samples;Min_cycle;Max_cycle;Signal;HPM_P1;HPM_P2
2021/05/23 00:01:53;;;;;;;3.70;1.42;;;;;;;17.73;40.00;100826.69;4133881;28;20045;-49
2021/05/23 00:03:53;;;;;;;3.95;1.70;;;;;;;17.56;40.36;100843.53;4137741;28;20033;-49
2021/05/23 00:05:54;;;;;;;4.43;1.60;;;;;;;17.60;40.07;100832.75;4136248;28;20477;-50
2021/05/23 00:07:59;;;;;;;3.40;1.42;;;;;;;17.63;40.07;100833.03;4136155;28;20161;-52
2021/05/23 00:09:59;;;;;;;2.92;1.10;;;;;;;17.59;40.15;100842.97;4135878;28;20498;-49
2021/05/23 00:12:00;;;;;;;3.03;1.10;;;;;;;17.43;40.38;100836.53;4137571;28;20266;-53
2021/05/23 00:14:00;;;;;;;1.98;1.13;;;;;;;17.63;39.98;100835.00;4134845;28;20348;-47
2021/05/23 00:16:02;;;;;;;3.85;1.33;;;;;;;17.59;40.15;100839.38;4136197;28;20030;-50
2021/05/23 00:18:05;;;;;;;4.30;1.33;;;;;;;17.57;40.33;100834.13;4135220;28;20137;-51
2021/05/23 00:20:06;;;;;;;3.05;1.52;;;;;;;17.55;40.09;100835.50;4132918;28;20037;-50
2021/05/23 00:22:07;;;;;;;2.38;1.30;;;;;;;17.54;39.84;100834.66;4137392;28;20105;-46
2021/05/23 00:24:09;;;;;;;1.52;1.05;;;;;;;17.54;40.08;100842.97;4135987;28;20034;-47
2021/05/23 00:26:10;;;;;;;3.00;1.05;;;;;;;17.57;39.96;100838.84;4135320;28;20104;-48
2021/05/23 00:28:11;;;;;;;4.18;1.40;;;;;;;17.56;39.93;100835.22;4133074;28;20030;-48
2021/05/23 00:30:13;;;;;;;3.05;1.20;;;;;;;17.56;40.18;100837.16;4140755;28;20593;-50
2021/05/23 00:32:13;;;;;;;2.17;1.27;;;;;;;17.59;40.06;100840.22;4139079;28;20038;-53
2021/05/23 00:34:13;;;;;;;2.53;1.13;;;;;;;17.53;40.12;100838.53;4141682;28;20045;-54
2021/05/23 00:36:14;;;;;;;2.72;1.23;;;;;;;17.57;40.07;100833.31;4138543;28;20038;-50
2021/05/23 00:38:14;;;;;;;4.10;1.55;;;;;;;17.51;40.05;100851.00;4139743;28;20054;-51
2021/05/23 00:40:16;;;;;;;2.90;1.20;;;;;;;17.58;40.03;100846.03;4135565;28;20034;-54
2021/05/23 00:42:16;;;;;;;2.50;1.00;;;;;;;17.60;39.91;100838.31;4138804;28;20507;-53
2021/05/23 00:44:16;;;;;;;2.70;1.25;;;;;;;17.52;39.93;100830.50;4141911;28;20034;-52
2021/05/23 00:46:17;;;;;;;3.67;1.20;;;;;;;17.59;39.86;100844.94;4147687;28;20044;-52
2021/05/23 00:48:19;;;;;;;1.77;1.20;;;;;;;17.56;40.02;100853.78;4141166;28;20057;-48
2021/05/23 00:50:22;;;;;;;3.17;1.50;;;;;;;17.43;39.90;100847.59;4146403;28;20029;-53
2021/05/23 00:52:23;;;;;;;1.85;1.25;;;;;;;17.50;39.94;100854.84;4137150;28;20141;-50
2021/05/23 00:54:23;;;;;;;3.67;1.42;;;;;;;17.48;40.25;100851.50;4146686;28;20464;-51
2021/05/23 00:56:24;;;;;;;3.85;1.05;;;;;;;17.53;39.85;100857.06;4140400;28;20419;-48
2021/05/23 00:58:24;;;;;;;3.25;1.20;;;;;;;17.43;40.04;100855.06;4141917;28;20034;-48
2021/05/23 01:00:53;;;;;;;5.20;1.00;;;;;;;17.44;40.06;100852.03;4147658;28;20099;-51
2021/05/23 01:02:59;;;;;;;3.30;1.50;;;;;;;17.41;40.12;100854.50;4135413;28;20037;-52
2021/05/23 01:05:00;;;;;;;4.40;1.38;;;;;;;17.33;40.57;100855.84;4142685;28;20040;-52
2021/05/23 01:07:00;;;;;;;3.15;1.30;;;;;;;17.43;40.09;100855.91;4142038;28;20030;-48
2021/05/23 01:09:02;;;;;;;1.80;0.93;;;;;;;17.42;40.09;100867.22;4141298;28;20030;-53
2021/05/23 01:11:09;;;;;;;3.78;1.13;;;;;;;17.45;40.02;100864.75;4139625;28;20210;-48
2021/05/23 01:13:31;;;;;;;4.07;1.77;;;;;;;17.38;40.23;100864.19;4140070;28;20050;-49
2021/05/23 01:15:38;;;;;;;3.13;1.20;;;;;;;17.36;40.08;100866.34;4135417;28;20029;-49
2021/05/23 01:17:44;;;;;;;3.92;1.20;;;;;;;17.42;40.01;100865.28;4141226;28;20567;-50
2021/05/23 01:19:50;;;;;;;2.20;1.10;;;;;;;17.38;40.23;100864.19;4143822;28;20508;-48
2021/05/23 01:22:04;;;;;;;3.53;1.30;;;;;;;17.45;39.88;100869.47;4145010;28;20399;-46
2021/05/23 01:24:10;;;;;;;4.05;1.23;;;;;;;17.39;40.02;100865.81;4139705;28;20046;-53
2021/05/23 01:26:13;;;;;;;3.42;1.23;;;;;;;17.39;40.25;100863.06;4145456;28;20258;-46
2021/05/23 01:28:16;;;;;;;2.13;1.00;;;;;;;17.44;39.93;100856.72;4141919;28;20029;-47
2021/05/23 01:30:21;;;;;;;5.03;1.45;;;;;;;17.33;40.20;100855.00;4139603;28;20121;-47
2021/05/23 01:32:21;;;;;;;2.67;1.10;;;;;;;17.24;39.90;100838.06;4142738;28;21178;-46
2021/05/23 01:34:23;;;;;;;1.63;0.98;;;;;;;17.34;40.11;100856.69;4137086;28;20034;-47
2021/05/23 01:36:28;;;;;;;3.60;1.10;;;;;;;17.35;40.13;100859.19;4136300;28;20136;-50
2021/05/23 01:38:29;;;;;;;3.60;1.00;;;;;;;17.35;40.15;100856.41;4134524;28;20042;-48
2021/05/23 01:40:34;;;;;;;1.45;0.98;;;;;;;17.39;39.86;100852.00;4139531;28;20046;-47
2021/05/23 01:42:34;;;;;;;2.95;1.27;;;;;;;17.24;40.07;100838.94;4143086;28;20025;-52
2021/05/23 01:44:35;;;;;;;1.88;1.00;;;;;;;17.25;40.25;100843.34;4139725;28;20076;-50
2021/05/23 01:46:37;;;;;;;2.70;1.08;;;;;;;17.29;40.15;100846.41;4140911;28;20148;-52
2021/05/23 01:48:38;;;;;;;2.08;1.00;;;;;;;17.30;40.11;100850.84;4139012;28;20065;-50
2021/05/23 01:50:39;;;;;;;2.28;0.95;;;;;;;17.23;40.14;100839.19;4141365;28;20535;-48
2021/05/23 01:52:47;;;;;;;2.38;0.95;;;;;;;17.25;40.12;100837.81;4131141;28;20026;-51
2021/05/23 01:54:47;;;;;;;1.85;1.20;;;;;;;17.21;40.14;100827.53;4140528;28;20429;-52
2021/05/23 01:56:48;;;;;;;1.63;1.30;;;;;;;17.21;39.99;100816.47;4139048;28;20065;-50
2021/05/23 01:58:48;;;;;;;5.13;1.33;;;;;;;17.31;40.09;100841.44;4136233;28;20034;-49
2021/05/23 02:00:51;;;;;;;2.10;1.20;;;;;;;17.28;40.08;100828.97;4138227;28;20273;-51
2021/05/23 02:02:52;;;;;;;1.70;1.05;;;;;;;17.28;40.00;100831.75;4138777;28;20045;-51
2021/05/23 02:04:52;;;;;;;4.53;1.10;;;;;;;17.23;40.22;100828.94;4134688;28;20038;-51
2021/05/23 02:06:52;;;;;;;1.52;0.90;;;;;;;17.27;40.11;100834.78;4139288;28;20034;-51
2021/05/23 02:08:53;;;;;;;2.63;1.10;;;;;;;17.32;39.97;100843.13;4143440;28;20093;-51
2021/05/23 02:10:58;;;;;;;1.70;0.95;;;;;;;17.24;40.08;100829.78;4139875;28;20084;-48
2021/05/23 02:13:03;;;;;;;6.95;1.23;;;;;;;17.27;40.16;100843.06;4140701;28;20026;-51
2021/05/23 02:15:05;;;;;;;1.65;1.10;;;;;;;17.27;40.17;100840.31;4137534;28;20123;-52
2021/05/23 02:17:06;;;;;;;3.80;1.20;;;;;;;17.28;39.92;100847.50;4139361;28;20396;-47
2021/05/23 02:19:06;;;;;;;2.30;1.70;;;;;;;17.21;40.11;100847.75;4142565;28;20033;-49
2021/05/23 02:21:07;;;;;;;2.55;1.33;;;;;;;17.27;40.09;100846.69;4140440;28;20027;-55
2021/05/23 02:23:14;;;;;;;3.90;1.25;;;;;;;17.25;40.09;100848.06;4141437;28;20045;-53
2021/05/23 02:25:17;;;;;;;2.53;1.30;;;;;;;17.15;40.19;100850.75;4138921;28;20038;-58
2021/05/23 02:27:18;;;;;;;3.35;1.00;;;;;;;17.14;40.26;100855.44;4136768;28;20130;-51
2021/05/23 02:29:19;;;;;;;2.20;1.10;;;;;;;17.18;40.33;100847.44;4150866;28;20589;-48
2021/05/23 02:31:19;;;;;;;1.88;0.90;;;;;;;17.22;40.13;100854.13;4138242;28;20093;-53
2021/05/23 02:33:21;;;;;;;1.63;1.20;;;;;;;17.14;40.37;100852.69;4143825;28;20040;-52
2021/05/23 02:35:26;;;;;;;1.88;1.15;;;;;;;17.16;40.14;100847.72;4143510;28;20042;-49
2021/05/23 02:37:26;;;;;;;5.10;1.38;;;;;;;17.12;40.30;100832.78;4145623;28;20381;-50
2021/05/23 02:39:27;;;;;;;4.78;1.75;;;;;;;17.18;40.13;100836.38;4146869;28;20084;-50
2021/05/23 02:41:27;;;;;;;2.22;1.27;;;;;;;17.15;40.26;100843.31;4143121;28;20579;-46
2021/05/23 02:43:29;;;;;;;2.47;1.30;;;;;;;17.14;40.31;100851.88;4143771;28;20041;-47
2021/05/23 02:45:30;;;;;;;1.40;1.20;;;;;;;17.10;40.34;100852.41;4144961;28;20500;-51
2021/05/23 02:47:30;;;;;;;2.13;0.88;;;;;;;17.09;40.24;100842.44;4139758;28;20045;-53
2021/05/23 02:49:31;;;;;;;3.42;0.93;;;;;;;17.15;40.31;100847.97;4145426;28;20104;-54
2021/05/23 02:51:31;;;;;;;3.20;1.33;;;;;;;17.10;40.14;100855.16;4143042;28;20154;-52
2021/05/23 02:53:32;;;;;;;1.35;0.93;;;;;;;17.16;40.28;100847.72;4144231;28;20030;-52
2021/05/23 02:55:34;;;;;;;3.22;1.55;;;;;;;17.05;40.37;100838.53;4138956;28;20520;-54
2021/05/23 02:57:39;;;;;;;3.80;1.20;;;;;;;17.08;40.36;100843.50;4140631;28;20434;-50
2021/05/23 02:59:40;;;;;;;3.33;1.50;;;;;;;17.15;39.99;100842.44;4146740;28;20160;-52
2021/05/23 03:01:40;;;;;;;2.45;1.20;;;;;;;17.11;40.37;100848.50;4145215;28;20049;-55
2021/05/23 03:03:40;;;;;;;2.33;1.40;;;;;;;17.02;40.41;100841.00;4143282;28;20550;-50
2021/05/23 03:05:43;;;;;;;2.88;1.40;;;;;;;17.08;40.55;100853.75;4141108;28;20025;-52
2021/05/23 03:07:46;;;;;;;3.00;1.15;;;;;;;17.05;40.37;100852.38;4139295;28;20034;-53
2021/05/23 03:09:47;;;;;;;2.83;1.38;;;;;;;17.13;40.25;100845.47;4140479;28;20365;-51
2021/05/23 03:11:47;;;;;;;2.58;1.10;;;;;;;17.02;40.44;100849.28;4140201;28;20033;-53
2021/05/23 03:13:48;;;;;;;2.83;1.17;;;;;;;17.11;40.18;100848.50;4139895;28;20053;-52
2021/05/23 03:15:48;;;;;;;1.92;1.30;;;;;;;17.11;40.17;100848.50;4142369;28;20034;-53
2021/05/23 03:17:49;;;;;;;1.73;1.00;;;;;;;17.06;40.23;100854.03;4133946;28;20408;-53
2021/05/23 03:19:49;;;;;;;3.20;1.10;;;;;;;17.00;40.43;100849.56;4145160;28;20042;-54
2021/05/23 03:21:50;;;;;;;2.28;1.63;;;;;;;16.99;40.20;100849.81;4147875;28;20095;-53
2021/05/23 03:23:50;;;;;;;1.85;1.20;;;;;;;16.95;40.62;100849.53;4136234;28;20112;-51
2021/05/23 03:25:51;;;;;;;2.97;1.40;;;;;;;16.97;40.44;100855.63;4141113;28;20038;-52
2021/05/23 03:27:52;;;;;;;2.65;1.40;;;;;;;17.07;40.07;100855.69;4146811;28;20067;-54
2021/05/23 03:29:52;;;;;;;2.83;1.00;;;;;;;17.02;40.64;100855.66;4142603;28;20034;-52
2021/05/23 03:31:53;;;;;;;3.13;1.20;;;;;;;17.06;40.34;100855.97;4141647;28;20097;-54
2021/05/23 03:33:53;;;;;;;2.97;1.08;;;;;;;17.01;40.24;100858.72;4142939;28;20033;-52
2021/05/23 03:35:54;;;;;;;2.65;0.93;;;;;;;17.11;40.38;100853.22;4142913;28;20582;-54
2021/05/23 03:37:54;;;;;;;2.42;1.13;;;;;;;17.08;39.96;100854.56;4133279;28;20424;-55
2021/05/23 03:39:55;;;;;;;1.67;1.35;;;;;;;17.07;40.25;100854.88;4136078;28;20038;-53
2021/05/23 03:41:55;;;;;;;3.42;0.93;;;;;;;17.03;40.24;100862.03;4142864;28;20029;-54
2021/05/23 03:43:55;;;;;;;2.90;1.25;;;;;;;17.03;40.36;100862.84;4142740;28;20041;-52
2021/05/23 03:45:56;;;;;;;2.63;1.30;;;;;;;17.06;40.28;100861.50;4141909;28;20033;-50
2021/05/23 03:47:56;;;;;;;1.33;1.00;;;;;;;17.03;40.25;100862.84;4144342;28;20311;-51
2021/05/23 03:49:57;;;;;;;1.70;1.00;;;;;;;16.97;40.47;100866.69;4144172;28;20540;-48
2021/05/23 03:51:57;;;;;;;2.33;1.13;;;;;;;16.99;40.31;100863.66;4145827;28;20037;-51
2021/05/23 03:53:57;;;;;;;1.48;0.95;;;;;;;17.01;40.25;100865.06;4146187;28;20042;-51
2021/05/23 03:55:58;;;;;;;2.80;1.40;;;;;;;16.94;40.46;100850.63;4143333;28;20067;-53
2021/05/23 03:57:58;;;;;;;2.10;1.20;;;;;;;16.92;40.51;100861.13;4144912;28;20037;-47
2021/05/23 03:59:59;;;;;;;2.47;1.17;;;;;;;16.97;40.40;100858.38;4145022;28;20167;-47
2021/05/23 04:02:00;;;;;;;2.40;1.00;;;;;;;16.92;40.61;100856.41;4142447;28;20074;-52
2021/05/23 04:04:01;;;;;;;4.90;1.38;;;;;;;17.00;40.16;100855.09;4143953;28;20030;-49
2021/05/23 04:06:02;;;;;;;2.40;1.40;;;;;;;17.01;40.40;100869.75;4146508;28;20061;-53
2021/05/23 04:08:04;;;;;;;2.55;1.30;;;;;;;16.92;40.56;100866.66;4143428;28;20033;-51
2021/05/23 04:10:06;;;;;;;1.92;1.15;;;;;;;16.97;40.26;100874.16;4145472;28;20030;-52
2021/05/23 04:12:08;;;;;;;2.40;1.30;;;;;;;16.99;40.25;100866.41;4145825;28;20057;-53
2021/05/23 04:14:10;;;;;;;4.13;1.50;;;;;;;16.95;40.36;100871.66;4144797;28;20084;-51
2021/05/23 04:16:11;;;;;;;3.47;1.42;;;;;;;16.90;40.46;100868.84;4145400;28;20033;-52
2021/05/23 04:18:12;;;;;;;3.42;1.42;;;;;;;16.88;40.67;100869.13;4145628;28;20057;-50
2021/05/23 04:20:15;;;;;;;4.15;1.20;;;;;;;17.00;40.22;100866.16;4145308;28;20416;-51
2021/05/23 04:22:16;;;;;;;3.60;1.40;;;;;;;16.97;40.35;100872.22;4148537;28;20046;-47
2021/05/23 04:24:17;;;;;;;2.58;1.20;;;;;;;16.93;40.42;100873.84;4143750;28;20033;-47
2021/05/23 04:26:17;;;;;;;2.65;1.33;;;;;;;16.93;40.32;100865.56;4141298;28;20472;-54
2021/05/23 04:28:18;;;;;;;2.45;1.55;;;;;;;16.87;40.32;100875.75;4140870;28;20036;-49
2021/05/23 04:30:22;;;;;;;3.08;1.15;;;;;;;16.89;40.57;100872.72;4143687;28;20080;-49
2021/05/23 04:32:23;;;;;;;3.33;1.48;;;;;;;16.96;40.46;100867.78;4138208;28;20462;-51
2021/05/23 04:34:23;;;;;;;2.60;1.10;;;;;;;16.93;40.29;100863.63;4144670;28;20034;-53
2021/05/23 04:36:23;;;;;;;2.97;1.27;;;;;;;16.91;40.43;100859.44;4146557;28;20045;-53
2021/05/23 04:38:24;;;;;;;2.42;1.00;;;;;;;16.92;40.41;100867.47;4139021;28;20547;-50
2021/05/23 04:40:24;;;;;;;3.00;1.10;;;;;;;16.97;40.40;100866.69;4144378;28;20034;-51
2021/05/23 04:42:25;;;;;;;3.03;1.48;;;;;;;16.89;40.42;100869.94;4147188;28;20038;-52
2021/05/23 04:44:25;;;;;;;3.95;1.40;;;;;;;16.87;40.46;100858.34;4143840;28;20766;-50
2021/05/23 04:46:26;;;;;;;2.92;1.30;;;;;;;16.88;40.69;100868.28;4143257;28;20123;-50
2021/05/23 04:48:26;;;;;;;3.03;1.58;;;;;;;16.84;40.59;100876.28;4145429;28;20051;-51
2021/05/23 04:50:27;;;;;;;5.32;1.60;;;;;;;16.97;40.28;100874.16;4143259;28;20793;-51
2021/05/23 04:52:27;;;;;;;2.80;1.50;;;;;;;16.87;40.32;100866.63;4143990;28;20062;-49
2021/05/23 04:54:28;;;;;;;2.35;1.40;;;;;;;16.85;40.52;100872.41;4146284;28;20092;-50
2021/05/23 04:56:28;;;;;;;2.38;1.50;;;;;;;16.84;40.25;100865.22;4142921;28;20030;-53
2021/05/23 04:58:29;;;;;;;2.00;1.40;;;;;;;17.03;39.98;100873.09;4156310;28;20506;-50
2021/05/23 05:00:29;;;;;;;1.52;1.30;;;;;;;16.99;40.40;100878.31;4146630;28;20026;-52
2021/05/23 05:02:30;;;;;;;4.15;1.85;;;;;;;16.96;40.01;100878.84;4144507;28;20034;-53
2021/05/23 05:04:30;;;;;;;3.85;1.75;;;;;;;16.81;40.59;100884.28;4143970;28;20712;-50
2021/05/23 05:06:31;;;;;;;2.97;1.58;;;;;;;16.77;40.75;100875.66;4141817;28;20038;-47
2021/05/23 05:08:32;;;;;;;3.28;1.52;;;;;;;16.89;40.32;100876.31;4142683;28;20592;-51
2021/05/23 05:10:32;;;;;;;2.63;1.38;;;;;;;16.85;40.26;100871.56;4137744;28;20061;-50
2021/05/23 05:12:33;;;;;;;3.75;1.70;;;;;;;16.96;40.00;100876.09;4144422;28;20492;-49
2021/05/23 05:14:33;;;;;;;2.30;1.38;;;;;;;16.86;40.41;100879.59;4145920;28;20041;-51
2021/05/23 05:16:34;;;;;;;5.43;1.60;;;;;;;16.79;40.43;100872.63;4142548;28;20040;-46
2021/05/23 05:18:35;;;;;;;2.17;1.40;;;;;;;16.81;40.48;100868.50;4144576;28;20034;-47
2021/05/23 05:20:36;;;;;;;2.42;1.38;;;;;;;16.94;40.33;100867.22;4150181;28;20030;-47
2021/05/23 05:22:37;;;;;;;2.38;1.73;;;;;;;16.89;40.33;100867.19;4142214;28;20073;-53
2021/05/23 05:24:37;;;;;;;2.83;1.83;;;;;;;16.88;40.25;100863.59;4146155;28;20492;-50
2021/05/23 05:26:39;;;;;;;4.38;1.90;;;;;;;16.92;40.11;100872.19;4144170;28;20038;-53
2021/05/23 05:28:39;;;;;;;3.10;1.75;;;;;;;16.88;40.36;100876.56;4145071;28;20029;-56
2021/05/23 05:30:40;;;;;;;2.58;1.30;;;;;;;16.86;40.07;100876.81;4148915;28;20120;-53
2021/05/23 05:32:40;;;;;;;3.63;1.30;;;;;;;16.90;40.18;100885.44;4143691;28;20397;-52
2021/05/23 05:34:41;;;;;;;3.92;1.35;;;;;;;16.88;40.22;100876.56;4143634;28;20041;-50
2021/05/23 05:36:42;;;;;;;2.10;1.30;;;;;;;16.83;40.40;100877.34;4144215;28;20488;-51
2021/05/23 05:38:42;;;;;;;3.08;1.50;;;;;;;16.81;40.49;100881.50;4141765;28;20029;-53
2021/05/23 05:40:42;;;;;;;2.75;1.40;;;;;;;16.82;40.28;100888.69;4142157;28;20545;-53
2021/05/23 05:42:43;;;;;;;1.73;1.42;;;;;;;16.89;40.24;100887.34;4141556;28;20117;-54
2021/05/23 05:44:43;;;;;;;2.55;1.80;;;;;;;16.87;40.42;100883.22;4141691;28;20042;-54
2021/05/23 05:46:44;;;;;;;2.70;1.63;;;;;;;16.91;40.34;100887.09;4143109;28;20042;-54
2021/05/23 05:48:44;;;;;;;2.42;1.70;;;;;;;16.92;40.35;100894.31;4140331;28;20089;-55
2021/05/23 05:50:45;;;;;;;2.75;1.55;;;;;;;16.90;40.39;100902.03;4143768;28;20033;-54
2021/05/23 05:52:45;;;;;;;3.65;1.90;;;;;;;16.87;40.19;100891.50;4144120;28;20029;-50
2021/05/23 05:54:46;;;;;;;2.30;1.67;;;;;;;16.91;40.43;100892.63;4142198;28;20030;-52
2021/05/23 05:56:46;;;;;;;4.05;1.55;;;;;;;16.92;40.34;100897.06;4143607;28;20500;-51
2021/05/23 05:58:47;;;;;;;4.25;1.77;;;;;;;16.86;40.46;100909.19;4150494;28;20049;-53
2021/05/23 06:00:47;;;;;;;2.15;1.30;;;;;;;16.84;40.24;100903.09;4144392;28;20041;-52
2021/05/23 06:02:48;;;;;;;2.30;1.38;;;;;;;16.87;40.47;100903.38;4141936;28;20037;-51
2021/05/23 06:04:50;;;;;;;3.53;1.60;;;;;;;16.86;40.11;100896.19;4144485;28;20488;-53
2021/05/23 06:06:50;;;;;;;2.60;1.40;;;;;;;16.87;40.50;100910.84;4142580;28;20029;-51
2021/05/23 06:08:51;;;;;;;3.80;1.50;;;;;;;16.87;40.56;100916.38;4147213;28;20041;-52
2021/05/23 06:10:51;;;;;;;3.17;1.60;;;;;;;16.91;40.45;100911.97;4141537;28;20085;-51
2021/05/23 06:12:52;;;;;;;3.38;1.75;;;;;;;16.85;40.45;100913.88;4142894;28;20576;-52
2021/05/23 06:14:52;;;;;;;3.65;1.70;;;;;;;16.75;40.08;100895.25;4141852;28;20078;-52
2021/05/23 06:16:54;;;;;;;2.97;1.98;;;;;;;16.87;40.34;100919.97;4142732;28;20030;-49
2021/05/23 06:18:54;;;;;;;2.40;2.20;;;;;;;16.92;40.44;100920.00;4144227;28;20030;-51
2021/05/23 06:20:55;;;;;;;1.83;1.60;;;;;;;16.91;40.36;100909.22;4143118;28;20096;-52
2021/05/23 06:22:55;;;;;;;2.58;1.20;;;;;;;16.87;40.11;100908.09;4144173;28;20034;-51
2021/05/23 06:24:55;;;;;;;3.10;1.63;;;;;;;16.87;40.30;100914.44;4143327;28;20080;-53
2021/05/23 06:26:56;;;;;;;2.63;1.40;;;;;;;16.90;40.17;100913.09;4140204;28;20042;-53
2021/05/23 06:28:57;;;;;;;3.28;1.50;;;;;;;16.91;40.45;100915.59;4147420;28;20034;-53
2021/05/23 06:30:57;;;;;;;4.20;1.55;;;;;;;16.85;40.51;100916.66;4142168;28;20062;-51
2021/05/23 06:32:58;;;;;;;2.25;1.42;;;;;;;16.92;40.16;100921.94;4144309;28;20358;-52
2021/05/23 06:34:58;;;;;;;1.75;1.48;;;;;;;16.90;40.05;100921.38;4147684;28;20069;-50
2021/05/23 06:36:58;;;;;;;1.83;1.17;;;;;;;16.93;40.32;100920.84;4142619;28;20088;-51
2021/05/23 06:38:59;;;;;;;4.28;1.30;;;;;;;16.89;40.59;100930.78;4146772;28;20033;-53
2021/05/23 06:40:59;;;;;;;3.42;1.80;;;;;;;16.93;40.42;100927.22;4150731;28;20088;-50
2021/05/23 06:43:00;;;;;;;4.95;1.67;;;;;;;16.91;40.47;100923.03;4142601;28;20459;-53
2021/05/23 06:45:00;;;;;;;2.10;1.25;;;;;;;16.95;40.27;100931.66;4141737;28;20640;-49
2021/05/23 06:47:01;;;;;;;1.88;1.40;;;;;;;16.92;40.28;100927.47;4139126;28;20037;-51
2021/05/23 06:49:02;;;;;;;2.38;1.50;;;;;;;16.95;40.25;100932.47;4144054;28;20049;-54
2021/05/23 06:51:02;;;;;;;3.10;1.75;;;;;;;16.96;40.21;100941.59;4146702;28;20144;-52
2021/05/23 06:53:04;;;;;;;2.55;1.45;;;;;;;16.86;40.70;100940.41;4142642;28;20095;-52
2021/05/23 06:55:05;;;;;;;1.73;1.60;;;;;;;17.01;40.13;100934.19;4143251;28;20034;-53
2021/05/23 06:57:05;;;;;;;2.53;1.50;;;;;;;17.02;40.30;100941.41;4146328;28;20049;-49
2021/05/23 06:59:06;;;;;;;2.33;1.73;;;;;;;16.96;40.34;100934.16;4141266;28;20492;-51
2021/05/23 07:01:06;;;;;;;3.60;1.45;;;;;;;16.91;40.62;100936.84;4146018;28;20037;-52
2021/05/23 07:03:07;;;;;;;1.98;1.45;;;;;;;16.93;40.20;100941.03;4146555;28;20040;-50
2021/05/23 07:05:08;;;;;;;2.78;1.50;;;;;;;16.94;40.43;100941.88;4142227;28;20026;-54
2021/05/23 07:07:08;;;;;;;2.38;1.40;;;;;;;16.93;40.60;100940.22;4143974;28;20567;-51
2021/05/23 07:09:09;;;;;;;1.90;1.50;;;;;;;16.88;40.20;100942.91;4141822;28;20033;-51
2021/05/23 07:11:09;;;;;;;2.58;1.40;;;;;;;16.94;40.43;100947.38;4136166;28;20125;-53
2021/05/23 07:13:10;;;;;;;1.85;1.17;;;;;;;16.91;40.63;100945.16;4141392;28;20038;-48
2021/05/23 07:15:11;;;;;;;1.52;0.80;;;;;;;16.90;40.71;100949.84;4137235;28;20172;-49
2021/05/23 07:17:11;;;;;;;2.88;1.40;;;;;;;16.89;40.64;100950.13;4138817;28;20034;-51
2021/05/23 07:19:11;;;;;;;1.58;1.23;;;;;;;16.91;40.42;100953.44;4144372;28;20037;-50
2021/05/23 07:21:12;;;;;;;1.95;1.20;;;;;;;17.00;40.59;100959.34;4139370;28;20424;-54
2021/05/23 07:23:13;;;;;;;1.30;1.10;;;;;;;16.95;40.50;100959.31;4133933;28;20068;-52
2021/05/23 07:25:14;;;;;;;3.60;1.70;;;;;;;16.98;40.47;100956.84;4143423;28;20477;-53
2021/05/23 07:27:14;;;;;;;1.35;1.15;;;;;;;16.99;40.57;100964.06;4139988;28;20487;-54
2021/05/23 07:29:15;;;;;;;3.92;1.60;;;;;;;16.96;40.46;100963.72;4141184;28;20476;-55
2021/05/23 07:31:15;;;;;;;1.95;1.27;;;;;;;17.00;40.45;100964.88;4140738;28;20100;-51
2021/05/23 07:33:17;;;;;;;1.70;1.05;;;;;;;16.97;40.53;100965.41;4139378;28;20042;-52
2021/05/23 07:35:17;;;;;;;3.42;1.40;;;;;;;16.93;40.49;100956.81;4137927;28;20096;-53
2021/05/23 07:37:18;;;;;;;2.05;1.30;;;;;;;16.97;40.46;100968.16;4142656;28;20100;-52
2021/05/23 07:39:19;;;;;;;1.75;0.82;;;;;;;17.00;40.58;100967.63;4150617;28;20040;-49
2021/05/23 07:41:19;;;;;;;1.50;0.90;;;;;;;17.00;40.57;100967.63;4141676;28;20048;-51
2021/05/23 07:43:19;;;;;;;2.00;1.23;;;;;;;16.99;40.59;100966.81;4144499;28;20187;-53
2021/05/23 07:45:20;;;;;;;1.50;1.13;;;;;;;17.04;40.41;100975.16;4146236;28;20038;-56
2021/05/23 07:47:21;;;;;;;1.10;0.93;;;;;;;16.98;40.58;100970.66;4143854;28;20488;-52
2021/05/23 07:49:21;;;;;;;1.10;1.00;;;;;;;17.02;40.62;100982.88;4143794;28;20034;-53
2021/05/23 07:51:22;;;;;;;2.35;1.17;;;;;;;16.99;40.81;100983.41;4138088;28;20041;-50
2021/05/23 07:53:22;;;;;;;1.38;1.10;;;;;;;16.98;40.48;100987.25;4140445;28;20450;-55
2021/05/23 07:55:23;;;;;;;2.88;1.27;;;;;;;16.99;40.54;100991.69;4137173;28;20037;-55
2021/05/23 07:57:23;;;;;;;2.08;1.30;;;;;;;17.01;40.49;100991.44;4138101;28;20034;-57
2021/05/23 07:59:23;;;;;;;1.40;0.90;;;;;;;16.96;40.85;100995.00;4141814;28;20065;-52
2021/05/23 08:01:24;;;;;;;1.80;1.10;;;;;;;17.05;40.06;100992.56;4147537;28;20050;-52
2021/05/23 08:03:26;;;;;;;1.98;1.10;;;;;;;17.06;40.40;100995.06;4140384;28;20462;-51
2021/05/23 08:05:27;;;;;;;1.65;0.80;;;;;;;17.06;40.15;100999.78;4144188;28;20404;-51
2021/05/23 08:07:28;;;;;;;1.02;0.88;;;;;;;17.02;40.32;100998.63;4138501;28;20073;-54
2021/05/23 08:09:29;;;;;;;0.93;0.80;;;;;;;17.02;40.24;100993.94;4136956;28;20184;-50
2021/05/23 08:11:29;;;;;;;1.15;0.80;;;;;;;17.09;39.95;101000.06;4140724;28;20026;-53
2021/05/23 08:13:29;;;;;;;1.10;0.90;;;;;;;17.06;40.39;101014.41;4139101;28;20670;-53
2021/05/23 08:15:31;;;;;;;1.58;1.10;;;;;;;17.10;40.29;101009.19;4143587;28;20033;-52
2021/05/23 08:17:31;;;;;;;1.35;1.00;;;;;;;17.07;40.12;101005.03;4133019;28;20125;-54
2021/05/23 08:19:32;;;;;;;1.30;1.20;;;;;;;17.12;39.98;101009.78;4140046;28;20069;-53
2021/05/23 08:21:32;;;;;;;1.42;1.17;;;;;;;17.17;39.88;101014.53;4159766;28;20030;-52
2021/05/23 08:23:33;;;;;;;0.80;0.80;;;;;;;17.10;39.93;101007.28;4140623;28;20124;-52
2021/05/23 08:25:34;;;;;;;1.45;1.10;;;;;;;17.10;40.26;101017.47;4143303;28;20030;-51
2021/05/23 08:27:34;;;;;;;1.83;0.80;;;;;;;17.11;40.05;101021.94;4131207;28;20039;-53
2021/05/23 08:29:35;;;;;;;0.90;0.85;;;;;;;17.11;40.19;101025.53;4140930;28;20037;-50
2021/05/23 08:31:35;;;;;;;0.95;0.95;;;;;;;17.14;40.30;101028.88;4141764;28;20045;-47
2021/05/23 08:33:35;;;;;;;1.10;0.68;;;;;;;17.10;40.12;101032.16;4135663;28;20050;-51
2021/05/23 08:35:36;;;;;;;1.30;0.70;;;;;;;17.09;39.94;101024.97;4141346;28;20819;-49
2021/05/23 08:37:37;;;;;;;2.03;0.80;;;;;;;17.10;39.88;101042.38;4142387;28;20048;-51
2021/05/23 08:39:38;;;;;;;1.55;1.17;;;;;;;17.21;39.98;101037.78;4141618;28;20038;-54
2021/05/23 08:41:38;;;;;;;1.20;0.70;;;;;;;17.21;39.48;101046.06;4141325;28;20551;-48
2021/05/23 08:43:38;;;;;;;2.38;1.02;;;;;;;17.21;39.92;101052.47;4138064;28;20049;-49
2021/05/23 08:45:39;;;;;;;1.40;0.90;;;;;;;17.02;39.70;101020.72;4138168;28;20057;-48
2021/05/23 08:47:44;;;;;;;1.60;0.95;;;;;;;17.22;39.74;101048.56;4134717;28;20154;-53
2021/05/23 08:49:49;;;;;;;2.10;1.02;;;;;;;17.24;39.85;101051.06;4139659;28;20166;-52
2021/05/23 08:51:51;;;;;;;2.40;1.20;;;;;;;17.25;39.73;101053.59;4134294;28;20103;-49
2021/05/23 08:53:51;;;;;;;1.02;1.00;;;;;;;17.07;40.16;101029.94;4138238;28;20033;-51
2021/05/23 08:55:52;;;;;;;1.65;0.90;;;;;;;17.26;39.97;101060.78;4136515;28;20073;-52
2021/05/23 08:57:54;;;;;;;1.13;0.80;;;;;;;17.24;39.61;101056.59;4137874;28;20092;-53
2021/05/23 08:59:55;;;;;;;0.88;0.60;;;;;;;17.28;39.68;101064.13;4140280;28;20079;-53
2021/05/23 09:02:06;;;;;;;1.15;0.82;;;;;;;17.38;39.65;101070.84;4134632;28;20496;-51
2021/05/23 09:04:09;;;;;;;1.08;0.90;;;;;;;17.38;39.40;101065.31;4137395;28;20119;-52
2021/05/23 09:06:09;;;;;;;1.75;1.27;;;;;;;17.29;39.60;101076.88;4136816;28;20034;-49
2021/05/23 09:08:19;;;;;;;1.20;1.02;;;;;;;17.33;39.48;101071.63;4137739;28;20048;-50
2021/05/23 09:10:34;;;;;;;1.15;0.95;;;;;;;17.31;39.71;101078.53;4139390;28;20484;-49
2021/05/23 09:12:45;;;;;;;1.23;0.80;;;;;;;17.36;39.64;101097.94;4145853;28;20042;-51
2021/05/23 09:14:50;;;;;;;1.65;0.80;;;;;;;17.33;39.63;101081.88;4132829;28;20030;-48
2021/05/23 09:16:51;;;;;;;1.13;1.00;;;;;;;17.38;39.67;101088.31;4134297;28;20041;-52
2021/05/23 09:18:56;;;;;;;0.70;0.70;;;;;;;17.40;39.71;101083.31;4130492;28;20069;-51
2021/05/23 09:21:01;;;;;;;1.23;0.90;;;;;;;17.43;39.31;101091.09;4136772;28;20034;-49
2021/05/23 09:23:22;;;;;;;2.22;1.08;;;;;;;17.41;39.70;101089.69;4128445;28;20933;-51
2021/05/23 09:25:28;;;;;;;1.65;1.35;;;;;;;17.43;39.10;101088.34;4130340;28;20049;-49